Latest Weather Observations for Alice Springs Airport

IDD60801

Issued at 8:01 am CST Thursday 30 March 2017 (issued every 30 minutes, with the page automatically refreshed every 10 minutes)

About weather observations | Map of weather stations | Latest weather observations for NT | Other Formats
Station Details ID: 015590 Name: ALICE SPRINGS AIRPORT Lat: -23.80 Lon: 133.89 Height: 546.0 m
Data from the previous 72 hours. | See also: Recent months at Alice Springs Airport
Date/Time
CST
Temp
°C
App
Temp
°C
Dew
Point
°C
Rel
Hum
%
Delta-T
°C
Wind Press
QNH
hPa
Press
MSL
hPa
Rain since
9am
mm
Dir  Spd
km/h
Gust
km/h
Spd
kts
Gust
kts
30/07:30am 20.4 15.6 10.3 52 5.6 SE 26 37 14 20 1021.4 1018.2 0.0
30/07:00am 20.1 14.9 10.3 53 5.4 SE 28 39 15 21 1021.0 1017.8 0.0
30/06:30am 20.6 15.9 9.4 48 6.1 SSE 24 39 13 21 1020.7 1017.4 0.0
30/06:00am 21.7 16.7 6.5 37 7.9 SE 22 35 12 19 1020.2 1016.9 0.0
30/05:30am 22.3 16.4 5.8 34 8.5 SE 26 35 14 19 1019.6 1016.4 0.0
30/05:00am 23.0 17.7 2.8 26 9.9 SE 20 35 11 19 1019.4 1016.2 0.0
30/04:30am 23.6 17.2 0.9 22 10.8 SE 24 33 13 18 1019.0 1015.7 0.0
30/04:00am 24.0 16.3 0.2 21 11.2 SE 30 39 16 21 1018.6 1015.3 0.0
30/03:30am 24.7 18.5 -0.2 19 11.7 SE 22 33 12 18 1018.5 1015.2 0.0
30/03:00am 25.0 18.4 -0.3 19 11.9 SE 24 37 13 20 1018.2 1014.9 0.0
30/02:30am 25.6 18.3 -0.2 18 12.2 SE 28 41 15 22 1017.7 1014.5 0.0
30/02:00am 25.9 19.2 1.2 20 12.0 SE 26 37 14 20 1017.5 1014.3 0.0
30/01:30am 26.1 21.2 1.7 20 12.0 SE 17 22 9 12 1017.6 1014.4 0.0
30/01:00am 26.2 21.3 2.2 21 11.9 SSE 17 24 9 13 1017.5 1014.3 0.0
30/12:30am 27.2 21.7 1.8 19 12.6 SE 20 30 11 16 1017.3 1014.0 0.0
30/12:00am 27.5 22.6 1.7 19 12.8 SE 17 28 9 15 1017.0 1013.7 0.0
 
Date/Time
CST
Temp
°C
App
Temp
°C
Dew
Point
°C
Rel
Hum
%
Delta-T
°C
Wind Press
QNH
hPa
Press
MSL
hPa
Rain since
9am
mm
Dir  Spd
km/h
Gust
km/h
Spd
kts
Gust
kts
29/11:30pm 27.4 23.7 2.6 20 12.5 SE 11 15 6 8 1016.8 1013.5 0.0
29/11:00pm 29.1 24.1 1.5 17 13.8 SE 17 26 9 14 1016.3 1013.0 0.0
29/10:30pm 29.5 24.5 1.6 16 14.0 SE 17 28 9 15 1016.1 1012.8 0.0
29/10:00pm 29.9 24.5 2.5 17 14.0 SE 20 30 11 16 1015.7 1012.4 0.0
29/09:30pm 29.9 26.2 4.6 20 13.4 SE 13 19 7 10 1015.4 1012.1 0.0
29/09:00pm 30.7 26.5 3.9 18 14.1 SE 15 22 8 12 1015.0 1011.7 0.0
29/08:30pm 31.3 25.7 3.4 17 14.6 SSE 22 30 12 16 1014.8 1011.5 0.0
29/08:00pm 31.4 26.7 5.9 20 13.9 SSE 20 30 11 16 1014.4 1011.1 0.0
29/07:30pm 32.0 26.7 5.2 18 14.5 SE 22 30 12 16 1014.1 1010.7 0.0
29/07:00pm 32.6 27.4 3.8 16 15.3 SE 20 32 11 17 1013.4 1010.1 0.0
29/06:30pm 33.2 27.5 4.7 16 15.4 SSE 24 32 13 17 1012.9 1009.6 0.0
29/06:00pm 34.1 29.2 5.3 16 15.8 SE 20 30 11 16 1012.5 1009.1 0.0
29/05:30pm 35.0 29.4 5.2 15 16.4 SSE 24 35 13 19 1012.2 1008.8 0.0
29/05:00pm 35.6 30.5 5.8 16 16.6 SE 22 33 12 18 1011.9 1008.6 0.0
29/04:30pm 36.1 31.4 6.2 16 16.8 ESE 20 30 11 16 1011.7 1008.4 0.0
29/04:00pm 36.2 35.1 17.8 33 12.2 ESE 20 32 11 17 1011.8 1008.5 0.0
29/03:30pm 35.8 33.8 14.9 28 13.3 SSE 19 30 10 16 1011.9 1008.6 0.0
29/03:00pm 35.5 32.5 10.6 22 14.9 SSE 17 28 9 15 1011.9 1008.6 0.0
29/02:30pm 35.2 31.6 8.4 19 15.5 SSE 17 28 9 15 1012.4 1009.0 0.0
29/02:00pm 34.9 30.6 6.9 17 15.8 SSE 19 26 10 14 1012.7 1009.4 0.0
29/01:30pm 34.1 30.5 6.6 18 15.4 S 15 26 8 14 1013.1 1009.8 0.0
29/01:00pm 33.2 29.8 6.0 18 15.0 SE 13 24 7 13 1013.4 1010.1 0.0
29/12:30pm 33.3 29.4 5.2 17 15.3 SE 15 22 8 12 1013.8 1010.5 0.0
29/12:00pm 32.3 28.8 5.5 18 14.6 SSE 13 19 7 10 1014.1 1010.7 0.0
29/11:30am 31.7 28.2 5.3 19 14.3 SSE 13 24 7 13 1014.6 1011.3 0.0
29/11:00am 31.2 27.3 5.2 19 14.0 ESE 15 19 8 10 1014.7 1011.4 0.0
29/10:30am 30.6 26.7 5.3 20 13.6 ESE 15 22 8 12 1014.7 1011.4 0.0
29/10:00am 32.3 28.4 7.0 20 14.1 ENE 17 24 9 13 1014.6 1011.3 0.0
29/09:30am 29.5 26.1 5.7 22 12.8 E 13 17 7 9 1014.8 1011.5 0.0
29/09:00am 28.1 24.2 5.3 23 12.1 E 15 19 8 10 1014.8 1011.5 0.0
29/08:30am 27.9 24.4 5.5 24 11.9 E 13 17 7 9 1014.8 1011.5 0.0
29/08:00am 27.0 23.6 5.7 25 11.3 ESE 13 15 7 8 1014.6 1011.3 0.0
29/07:30am 26.1 24.0 6.5 28 10.5 E 7 11 4 6 1014.3 1011.0 0.0
29/07:00am 25.5 23.7 8.0 33 9.6 S 7 7 4 4 1014.0 1010.6 0.0
29/06:30am 26.1 23.0 5.6 27 10.8 ESE 11 15 6 8 1013.6 1010.3 0.0
29/06:00am 26.1 23.0 5.6 27 10.8 ESE 11 15 6 8 1013.4 1010.1 0.0
29/05:30am 25.9 23.9 7.3 30 10.1 SE 7 7 4 4 1013.2 1009.9 0.0
29/05:00am 27.0 24.3 5.7 25 11.3 SE 9 11 5 6 1012.8 1009.5 0.0
29/04:30am 27.3 23.5 5.7 25 11.5 SE 15 22 8 12 1012.7 1009.4 0.0
29/04:00am 27.6 24.3 6.5 26 11.4 SE 13 17 7 9 1012.8 1009.5 0.0
29/03:30am 28.0 24.6 6.0 24 11.8 SE 13 17 7 9 1012.8 1009.5 0.0
29/03:00am 28.0 24.7 6.3 25 11.7 SE 13 17 7 9 1013.0 1009.7 0.0
29/02:30am 28.2 24.9 6.4 25 11.8 SE 13 17 7 9 1013.2 1009.9 0.0
29/02:00am 28.6 25.3 6.2 24 12.1 ESE 13 24 7 13 1013.3 1010.0 0.0
29/01:30am 28.6 26.5 6.8 25 11.9 E 7 13 4 7 1013.5 1010.2 0.0
29/01:00am 28.1 25.8 7.6 27 11.3 ESE 9 9 5 5 1013.7 1010.4 0.0
29/12:30am 27.5 25.5 8.5 30 10.6 SE 9 9 5 5 1013.8 1010.5 0.0
29/12:00am 28.4 26.2 7.9 27 11.4 SE 9 9 5 5 1014.0 1010.6 0.0
 
Date/Time
CST
Temp
°C
App
Temp
°C
Dew
Point
°C
Rel
Hum
%
Delta-T
°C
Wind Press
QNH
hPa
Press
MSL
hPa
Rain since
9am
mm
Dir  Spd
km/h
Gust
km/h
Spd
kts
Gust
kts
28/11:30pm 29.5 26.8 7.5 25 12.2 SE 11 13 6 7 1014.0 1010.6 0.0
28/11:00pm 29.9 26.9 7.9 25 12.3 SE 13 17 7 9 1014.1 1010.7 0.0
28/10:30pm 30.5 27.4 7.3 23 12.9 SE 13 19 7 10 1014.1 1010.7 0.0
28/10:00pm 30.4 27.3 7.4 23 12.8 SE 13 19 7 10 1014.2 1010.9 0.0
28/09:30pm 30.5 27.5 7.6 24 12.8 SE 13 15 7 8 1013.7 1010.4 0.0
28/09:00pm 31.3 27.4 7.3 22 13.4 SE 17 26 9 14 1013.4 1010.1 0.0
28/08:30pm 32.2 27.8 7.2 21 14.0 SE 20 28 11 15 1013.1 1009.8 0.0
28/08:00pm 32.4 28.7 7.8 21 13.9 SE 17 26 9 14 1012.6 1009.3 0.0
28/07:30pm 33.0 28.8 8.1 21 14.2 SE 20 28 11 15 1012.2 1008.8 0.0
28/07:00pm 33.8 29.5 7.8 20 14.8 SSE 20 30 11 16 1011.8 1008.5 0.0
28/06:30pm 35.0 31.1 7.1 18 15.8 SSE 17 26 9 14 1011.6 1008.3 0.0
28/06:00pm 35.8 31.9 7.2 17 16.3 SSE 17 24 9 13 1011.4 1008.1 0.0
28/05:30pm 36.4 32.9 7.1 16 16.7 SE 15 26 8 14 1011.2 1007.9 0.0
28/05:00pm 37.0 33.6 6.1 15 17.4 ESE 13 24 7 13 1011.2 1007.9 0.0
28/04:30pm 37.1 34.8 7.3 16 17.1 ENE 9 17 5 9 1011.2 1007.9 0.0
28/04:00pm 36.9 33.2 6.2 15 17.3 SE 15 22 8 12 1011.3 1008.0 0.0
28/03:30pm 37.2 33.9 6.2 15 17.5 ESE 13 22 7 12 1011.6 1008.3 0.0
28/03:00pm 36.8 33.3 7.0 16 17.0 SE 15 28 8 15 1011.9 1008.6 0.0
28/02:30pm 35.8 32.3 7.1 17 16.3 SE 15 26 8 14 1012.3 1008.9 0.0
28/02:00pm 35.7 31.8 7.3 17 16.2 ESE 17 30 9 16 1012.7 1009.4 0.0
28/01:30pm 35.0 31.5 7.1 18 15.8 ESE 15 26 8 14 1013.1 1009.8 0.0
28/01:00pm 34.3 30.4 6.9 18 15.4 SE 17 30 9 16 1013.6 1010.3 0.0
28/12:30pm 33.9 29.9 6.5 18 15.3 ESE 17 28 9 15 1014.3 1011.0 0.0
28/12:00pm 32.2 27.6 6.5 20 14.2 ESE 20 30 11 16 1015.0 1011.7 0.0
28/11:30am 32.1 28.0 6.3 20 14.2 ESE 17 26 9 14 1015.4 1012.1 0.0
28/11:00am 30.5 26.4 6.4 22 13.2 ESE 17 24 9 13 1016.1 1012.8 0.0
28/10:30am 29.7 25.2 6.1 22 12.8 ESE 19 26 10 14 1016.3 1013.0 0.0
28/10:00am 29.4 24.8 5.8 22 12.7 SE 19 28 10 15 1016.6 1013.3 0.0
28/09:30am 27.9 23.1 5.8 24 11.8 SE 20 30 11 16 1016.6 1013.3 0.0
28/09:00am 27.2 22.7 6.3 26 11.2 SE 19 26 10 14 1016.8 1013.5 0.0
28/08:30am 26.3 21.4 6.8 29 10.5 SE 22 30 12 16 1016.6 1013.3 0.0
28/08:00am 25.5 24.0 9.0 35 9.2 ESE 7 19 4 10 1016.5 1013.2 0.0
28/07:30am 23.6 22.3 9.8 41 7.7 SSW 7 9 4 5 1016.3 1013.0 0.0
28/07:00am 22.0 20.7 10.0 46 6.7 WSW 7 7 4 4 1016.0 1012.7 0.0
28/06:30am 21.9 19.5 10.1 47 6.6 SE 13 17 7 9 1015.6 1012.3 0.0
28/06:00am 24.0 21.2 8.7 37 8.4 SSE 13 17 7 9 1015.2 1011.9 0.0
28/05:30am 23.8 21.2 9.4 40 8.0 SE 13 17 7 9 1015.0 1011.7 0.0
28/05:00am 23.1 21.3 10.8 45 7.0 SSE 11 15 6 8 1014.8 1011.5 0.0
28/04:30am 23.6 22.0 10.3 43 7.5 SSE 9 13 5 7 1014.8 1011.5 0.0
28/04:00am 24.5 22.6 10.4 41 8.0 SSE 11 13 6 7 1014.8 1011.5 0.0
28/03:30am 25.4 23.6 10.8 40 8.4 SSE 11 15 6 8 1014.9 1011.6 0.0
28/03:00am 26.3 24.5 10.9 38 8.9 SSE 11 15 6 8 1014.8 1011.5 0.0
28/02:30am 27.5 24.4 10.3 34 9.9 SSE 17 26 9 14 1014.8 1011.5 0.0
28/02:00am 28.2 24.8 10.4 33 10.3 SSE 19 28 10 15 1015.0 1011.7 0.0
28/01:30am 28.6 25.2 10.5 32 10.5 SSE 19 26 10 14 1014.9 1011.6 0.0
28/01:00am 29.2 25.6 10.4 31 10.9 SSE 20 28 11 15 1015.0 1011.7 0.0
28/12:30am 29.5 26.6 10.9 31 10.9 SE 17 24 9 13 1015.3 1012.0 0.0
28/12:00am 29.8 26.9 10.9 31 11.1 SE 17 28 9 15 1015.3 1012.0 0.0
 
Date/Time
CST
Temp
°C
App
Temp
°C
Dew
Point
°C
Rel
Hum
%
Delta-T
°C
Wind Press
QNH
hPa
Press
MSL
hPa
Rain since
9am
mm
Dir  Spd
km/h
Gust
km/h
Spd
kts
Gust
kts
27/11:30pm 30.3 26.7 10.7 29 11.5 SSE 20 30 11 16 1015.5 1012.2 0.0
27/11:00pm 30.4 27.0 11.3 30 11.3 SE 20 30 11 16 1015.3 1012.0 0.0
27/10:30pm 30.8 28.2 12.1 31 11.2 SE 17 30 9 16 1015.2 1011.9 0.0
27/10:00pm 31.0 28.0 12.7 32 11.1 SSE 20 28 11 15 1015.0 1011.7 0.0
27/09:30pm 31.3 29.1 13.3 33 11.0 SSE 17 22 9 12 1014.5 1011.2 0.0
27/09:00pm 30.7 30.3 15.1 38 9.8 S 11 17 6 9 1014.3 1011.0 0.0
27/08:30pm 31.0 30.7 16.5 41 9.3 ESE 13 19 7 10 1014.3 1011.0 0.0
27/08:00pm 31.3 29.6 15.7 39 9.9 S 19 30 10 16 1013.0 1009.7 0.0
27/07:30pm 31.8 29.5 15.6 37 10.3 S 22 32 12 17 1012.3 1008.9 0.0
27/07:00pm 32.2 28.1 14.9 35 10.9 S 30 41 16 22 1011.6 1008.3 0.0
27/06:43pm 32.6 27.5 14.8 34 11.2 S 35 54 19 29 1011.5 1008.2 0.0
27/06:30pm 33.0 28.1 15.2 34 11.3 S 35 48 19 26 1011.1 1007.8 0.0
27/06:19pm 35.0 31.9 13.5 27 13.4 S 22 54 12 29 1010.9 1007.6 0.0
27/06:00pm 36.5 34.2 11.8 22 15.1 S 15 20 8 11 1010.3 1006.9 0.0
27/05:30pm 36.7 34.3 11.4 21 15.4 S 15 20 8 11 1010.4 1007.0 0.0
27/05:00pm 36.5 33.3 11.8 22 15.1 SSE 20 33 11 18 1010.4 1007.0 0.0
27/04:30pm 37.4 33.1 13.1 23 15.2 SSE 28 41 15 22 1010.3 1006.9 0.0
27/04:00pm 38.7 33.6 12.0 20 16.5 SSW 30 39 16 21 1009.9 1006.6 0.0
27/03:30pm 38.1 35.1 12.0 21 16.1 SW 19 33 10 18 1009.8 1006.5 0.0
27/03:00pm 38.3 37.9 13.1 22 15.8 ESE 7 13 4 7 1010.1 1006.7 0.0
27/02:30pm 38.1 37.2 12.5 21 15.9 ENE 9 13 5 7 1010.3 1006.9 0.0
27/02:00pm 38.1 36.6 12.0 21 16.1 ENE 11 15 6 8 1010.5 1007.1 0.0
27/01:30pm 38.4 37.3 12.0 20 16.3 ENE 9 17 5 9 1010.8 1007.4 0.0
27/01:00pm 39.7 38.2 13.2 20 16.7 NNE 13 20 7 11 1011.3 1008.0 0.0
27/12:30pm 38.3 36.9 13.3 22 15.7 N 13 22 7 12 1011.8 1008.5 0.0
27/12:00pm 38.0 36.3 12.3 21 15.9 NNW 13 26 7 14 1012.3 1008.9 0.0
27/11:30am 37.3 35.4 12.9 23 15.2 NNW 15 22 8 12 1012.6 1009.3 0.0
27/11:00am 37.2 35.9 13.7 24 14.8 NW 13 17 7 9 1013.0 1009.7 0.0
27/10:30am 36.1 35.1 14.5 27 13.7 NNW 13 20 7 11 1013.1 1009.8 0.0
27/10:00am 33.7 33.0 14.4 31 12.1 NNW 11 13 6 7 1013.3 1010.0 0.0
27/09:30am 33.2 32.4 15.2 33 11.4 N 13 15 7 8 1013.4 1010.1 0.0
27/09:00am 32.6 31.8 15.0 34 11.1 NNW 13 15 7 8 1013.5 1010.2 0.0
27/08:30am 32.5 31.5 14.7 34 11.2 NW 13 15 7 8 1013.3 1010.0 0.0

Other Formats:

Comma delimited format used in spreadsheet applications
http://www.bom.gov.au/fwo/IDD60801/IDD60801.94326.axf

JavaScript Object Notation format (JSON) in row-major order
http://www.bom.gov.au/fwo/IDD60801/IDD60801.94326.json